Portada
METAR-TAF:

METAR-TAF

Aeroports :

Libreville, Gabon

latitud: 00-27N, longitud: 009-25E, altitud: 12 m

Observació

L'informe es va fer fa 16 minuts, a les 01:30 UTC
Vent 6 kt del Sud
Temperatura 26°C
Humitat 84%
Pressió 1012 hPa
Visibilitat 10 km o més
Núvols disperses a una alçada de 1000 ft

METAR: FOOL 220130Z 19006KT 9999 SCT010 26/23 Q1012 NOSIG

Hora: 02:46 (01:46 UTC)

Pronòstic

L'informe es va fer fa 2 hores i 46 minuts, a les 23:00 UTC
Pronòstic vàlid del 22 a les 00 UTC al 23 a les 06 UTC
Vent 9 kt del Sud
Visibilitat 10 km o més
Núvols disperses a una alçada de 1000 ft
Cel ennuvolat a una alçada de 3000 ft
Probabilitat 30% :
Temporalment
l' 22 a les 22 UTC al 23 a les 05 UTC
Visibilitat: 4000 m
Cel ennuvolat a una alçada de 800 ft
pluja, plugim

TAF: FOOL 212300Z 2200/2306 19009KT 9999 SCT010 BKN030 PROB30 TEMPO 2222/2305 4000 RADZ BKN008

Observacions i pronòstics meteorològics de més de 4000 aeroports (METAR i TAF).

Les estacions disponibles són els punts grocs i vermells al mapa.

Posi el ratolí al punt desitjat per veure el nom de l'estació.

Feu clic per veure les observacions i els pronòstics meteorològics.

Per canviar el mapa: feu clic els botons verds amb una creu de color negre per apropar; al botó verd amb un guió per allunyar la imatge; o en les fletxes verdes per a mapes adjacents.


METAR-TAF: